createdAt,value
2023-01-12T00:00:01.194Z,4.75
2023-01-12T00:02:29.801Z,4.50
2023-01-12T00:04:58.200Z,4.97
2023-01-12T00:07:28.711Z,5.80
2023-01-12T00:09:57.095Z,5.05
2023-01-12T00:12:25.540Z,4.15
2023-01-12T00:14:54.624Z,5.22
2023-01-12T00:17:24.557Z,3.67
2023-01-12T00:19:54.687Z,4.65
2023-01-12T00:22:23.838Z,4.78
2023-01-12T00:24:52.863Z,6.60
2023-01-12T00:27:23.022Z,4.82
2023-01-12T00:29:52.053Z,5.50
2023-01-12T00:32:22.244Z,5.00
2023-01-12T00:34:52.038Z,3.95
2023-01-12T00:37:21.225Z,5.18
2023-01-12T00:40:01.476Z,5.22
2023-01-12T00:42:48.321Z,6.45
2023-01-12T00:45:23.222Z,5.85
2023-01-12T00:47:52.305Z,4.85
2023-01-12T00:50:22.405Z,5.70
2023-01-12T00:52:50.901Z,6.38
2023-01-12T00:55:19.351Z,4.70
2023-01-12T00:57:48.416Z,5.28
2023-01-12T01:00:18.516Z,5.60
2023-01-12T01:02:47.503Z,5.90
2023-01-12T01:05:18.270Z,6.03
2023-01-12T01:07:48.715Z,5.30
2023-01-12T01:10:18.465Z,4.45
2023-01-12T01:12:47.633Z,3.83
2023-01-12T01:15:16.381Z,4.65
2023-01-12T01:17:45.854Z,5.72
2023-01-12T01:20:14.582Z,5.85
2023-01-12T01:22:43.482Z,5.97
2023-01-12T01:25:13.648Z,6.28
2023-01-12T01:27:41.986Z,5.18
2023-01-12T01:30:12.049Z,4.85
2023-01-12T01:32:40.325Z,6.20
2023-01-12T01:35:09.248Z,5.85
2023-01-12T01:37:37.758Z,6.40
2023-01-12T01:40:07.117Z,4.55
2023-01-12T01:42:37.178Z,4.78
2023-01-12T01:45:07.644Z,4.70
2023-01-12T01:47:41.223Z,5.00
2023-01-12T01:50:19.468Z,3.80
2023-01-12T01:52:52.517Z,6.15
2023-01-12T01:55:25.042Z,5.63
2023-01-12T01:57:59.491Z,4.63
2023-01-12T02:00:29.480Z,4.72
2023-01-12T02:02:59.739Z,5.10
2023-01-12T02:05:29.961Z,6.45
2023-01-12T02:08:06.952Z,6.40
2023-01-12T02:10:35.629Z,5.43
2023-01-12T02:13:22.955Z,5.75
2023-01-12T02:16:23.568Z,5.95
2023-01-12T02:19:06.157Z,5.85
2023-01-12T02:22:02.396Z,5.03
2023-01-12T02:24:58.356Z,5.78
2023-01-12T02:27:45.038Z,5.82
2023-01-12T02:30:48.018Z,6.38
2023-01-12T02:33:31.894Z,6.20
2023-01-12T02:36:08.292Z,4.38
2023-01-12T02:38:43.605Z,5.55
2023-01-12T02:41:44.859Z,4.43
2023-01-12T02:44:23.554Z,4.57
2023-01-12T02:46:53.938Z,4.18
2023-01-12T02:49:28.421Z,4.85
2023-01-12T02:52:00.351Z,3.40
2023-01-12T02:54:31.281Z,4.82
2023-01-12T02:57:05.460Z,5.35
2023-01-12T02:59:37.776Z,4.90
2023-01-12T03:02:10.548Z,4.75
2023-01-12T03:04:42.243Z,4.40
2023-01-12T03:07:28.658Z,4.85
2023-01-12T03:10:01.483Z,5.40
2023-01-12T03:12:35.312Z,4.50
2023-01-12T03:15:09.048Z,4.53
2023-01-12T03:17:41.621Z,3.85
2023-01-12T03:20:16.775Z,4.70
2023-01-12T03:22:50.048Z,5.18
2023-01-12T03:25:19.928Z,4.53
2023-01-12T03:27:54.715Z,4.07
2023-01-12T03:30:26.376Z,3.80
2023-01-12T03:32:54.934Z,3.03
2023-01-12T03:35:29.843Z,3.65
2023-01-12T03:38:03.494Z,3.30
2023-01-12T03:40:39.243Z,3.42
2023-01-12T03:43:14.176Z,3.53
2023-01-12T03:45:49.014Z,4.38
2023-01-12T03:48:23.265Z,4.07
2023-01-12T03:50:59.089Z,3.42
2023-01-12T03:53:27.823Z,4.22
2023-01-12T03:56:01.121Z,4.28
2023-01-12T03:58:30.228Z,3.40
2023-01-12T04:00:59.066Z,3.58
2023-01-12T04:03:28.045Z,3.22
2023-01-12T04:05:58.532Z,3.22
2023-01-12T04:08:27.021Z,3.38
2023-01-12T04:10:56.402Z,3.55
2023-01-12T04:13:23.811Z,2.55
2023-01-12T04:15:52.489Z,3.00
2023-01-12T04:18:21.714Z,3.30
2023-01-12T04:20:50.219Z,3.78
2023-01-12T04:23:18.971Z,3.75
2023-01-12T04:25:47.477Z,3.75
2023-01-12T04:28:17.781Z,4.13
2023-01-12T04:30:46.708Z,3.80
2023-01-12T04:33:15.186Z,4.20
2023-01-12T04:35:43.707Z,5.03
2023-01-12T04:38:12.274Z,4.55
2023-01-12T04:40:42.141Z,3.88
2023-01-12T04:43:12.166Z,2.90
2023-01-12T04:45:43.925Z,4.13
2023-01-12T04:48:15.166Z,4.43
2023-01-12T04:50:44.906Z,4.45
2023-01-12T04:53:14.354Z,4.38
2023-01-12T04:55:45.374Z,3.92
2023-01-12T04:58:14.453Z,4.85
2023-01-12T05:00:43.037Z,3.75
2023-01-12T05:03:13.432Z,4.45
2023-01-12T05:05:42.353Z,5.13
2023-01-12T05:08:28.970Z,4.60
2023-01-12T05:11:01.821Z,4.70
2023-01-12T05:13:32.305Z,4.07
2023-01-12T05:16:10.684Z,4.53
2023-01-12T05:18:39.171Z,4.10
2023-01-12T05:21:08.176Z,3.72
2023-01-12T05:23:36.897Z,4.50
2023-01-12T05:26:07.968Z,3.65
2023-01-12T05:28:36.462Z,3.80
2023-01-12T05:31:07.762Z,3.50
2023-01-12T05:33:37.194Z,3.45
2023-01-12T05:36:06.989Z,2.53
2023-01-12T05:38:35.903Z,2.50
2023-01-12T05:41:10.596Z,3.25
2023-01-12T05:43:53.182Z,2.95
2023-01-12T05:46:24.425Z,2.65
2023-01-12T05:48:54.319Z,3.08
2023-01-12T05:51:24.071Z,3.47
2023-01-12T05:53:53.181Z,3.50
2023-01-12T05:56:26.335Z,3.10
2023-01-12T05:58:56.520Z,3.08
2023-01-12T06:01:25.386Z,3.60
2023-01-12T06:04:47.742Z,3.28
2023-01-12T06:07:17.309Z,4.07
2023-01-12T06:09:46.026Z,3.67
2023-01-12T06:12:33.534Z,3.50
2023-01-12T06:15:01.976Z,3.58
2023-01-12T06:17:31.986Z,3.72
2023-01-12T06:20:00.533Z,3.20
2023-01-12T06:22:29.178Z,2.90
2023-01-12T06:24:57.779Z,3.28
2023-01-12T06:27:27.561Z,3.35
2023-01-12T06:29:56.183Z,3.28
2023-01-12T06:32:24.838Z,2.80
2023-01-12T06:34:53.464Z,2.88
2023-01-12T06:37:22.177Z,3.28
2023-01-12T06:39:51.081Z,2.97
2023-01-12T06:42:32.216Z,2.67
2023-01-12T06:45:05.630Z,2.53
2023-01-12T06:47:34.053Z,3.13
2023-01-12T06:50:02.515Z,2.80
2023-01-12T06:52:30.885Z,3.13
2023-01-12T06:54:59.554Z,2.78
2023-01-12T06:57:30.020Z,2.40
2023-01-12T06:59:58.732Z,2.67
2023-01-12T07:02:28.751Z,2.58
2023-01-12T07:04:57.079Z,2.72
2023-01-12T07:07:25.757Z,2.95
2023-01-12T07:09:55.102Z,2.22
2023-01-12T07:12:23.857Z,2.40
2023-01-12T07:14:52.543Z,2.50
2023-01-12T07:17:21.141Z,2.00
2023-01-12T07:19:51.237Z,1.77
2023-01-12T07:22:19.877Z,1.98
2023-01-12T07:24:48.484Z,2.63
2023-01-12T07:27:16.904Z,1.95
2023-01-12T07:29:46.736Z,2.22
2023-01-12T07:32:15.527Z,2.28
2023-01-12T07:34:45.224Z,1.50
2023-01-12T07:37:15.125Z,2.05
2023-01-12T07:39:45.050Z,1.85
2023-01-12T07:42:26.836Z,2.05
2023-01-12T07:44:56.368Z,2.00
2023-01-12T07:47:25.409Z,1.98
2023-01-12T07:49:55.559Z,2.30
2023-01-12T07:52:25.880Z,1.40
2023-01-12T07:54:54.449Z,1.60
2023-01-12T07:57:29.686Z,1.60
2023-01-12T07:59:58.154Z,1.80
2023-01-12T08:02:33.182Z,1.92
2023-01-12T08:05:02.983Z,1.73
2023-01-12T08:07:34.846Z,1.75
2023-01-12T08:10:03.565Z,1.70
2023-01-12T08:12:32.474Z,1.70
2023-01-12T08:15:04.134Z,2.08
2023-01-12T08:17:38.787Z,1.73
2023-01-12T08:20:16.741Z,2.28
2023-01-12T08:22:52.053Z,2.65
2023-01-12T08:25:27.146Z,2.58
2023-01-12T08:28:01.047Z,2.53
2023-01-12T08:30:37.778Z,3.22
2023-01-12T08:33:06.846Z,2.85
2023-01-12T08:35:37.241Z,4.40
2023-01-12T08:38:07.166Z,4.07
2023-01-12T08:40:53.488Z,4.47
2023-01-12T08:43:36.723Z,4.80
2023-01-12T08:46:08.356Z,4.35
2023-01-12T08:48:37.096Z,5.13
2023-01-12T08:51:09.704Z,5.55
2023-01-12T08:53:41.770Z,4.65
2023-01-12T08:56:15.448Z,4.55
2023-01-12T08:58:44.650Z,5.05
2023-01-12T09:01:17.483Z,5.05
2023-01-12T09:03:46.672Z,5.15
2023-01-12T09:06:17.766Z,4.20
2023-01-12T09:08:50.089Z,4.30
2023-01-12T09:11:18.504Z,4.32
2023-01-12T09:13:48.440Z,4.88
2023-01-12T09:16:55.266Z,5.35
2023-01-12T09:19:24.675Z,5.78
2023-01-12T09:22:08.485Z,1.30
2023-01-12T09:24:39.141Z,0.52
2023-01-12T09:27:09.149Z,1.63
2023-01-12T09:29:41.895Z,4.72
2023-01-12T09:32:22.995Z,5.13
2023-01-12T09:34:54.487Z,5.03
2023-01-12T09:37:31.564Z,5.05
2023-01-12T09:40:01.578Z,5.22
2023-01-12T09:42:47.724Z,4.80
2023-01-12T09:45:37.799Z,0.82
2023-01-12T09:48:10.780Z,0.38
2023-01-12T09:50:43.204Z,0.20
2023-01-12T09:53:20.975Z,1.42
2023-01-12T09:55:57.979Z,0.30
2023-01-12T09:58:42.236Z,0.80
2023-01-12T10:01:24.080Z,0.28
2023-01-12T10:03:58.817Z,1.15
2023-01-12T10:06:29.384Z,1.75
2023-01-12T10:08:59.903Z,1.05
2023-01-12T10:11:37.774Z,0.35
2023-01-12T10:14:36.110Z,0.40
2023-01-12T10:17:27.890Z,0.85
2023-01-12T10:20:06.288Z,1.63
2023-01-12T10:22:46.013Z,7.03
2023-01-12T10:25:21.134Z,7.18
2023-01-12T10:27:54.233Z,7.70
2023-01-12T10:30:33.113Z,5.80
2023-01-12T10:33:15.631Z,5.03
2023-01-12T10:35:59.510Z,5.03
2023-01-12T10:38:35.270Z,5.07
2023-01-12T10:41:06.878Z,6.13
2023-01-12T10:43:38.561Z,6.22
2023-01-12T10:46:11.897Z,6.30
2023-01-12T10:48:43.829Z,6.07
2023-01-12T10:51:37.176Z,6.05
2023-01-12T10:54:17.981Z,6.88
2023-01-12T10:56:57.642Z,6.47
2023-01-12T10:59:31.763Z,6.57
2023-01-12T11:02:18.215Z,7.10
2023-01-12T11:04:49.200Z,6.13
2023-01-12T11:07:20.097Z,7.00
2023-01-12T11:09:48.535Z,7.57
2023-01-12T11:12:24.650Z,6.72
2023-01-12T11:15:03.577Z,6.35
2023-01-12T11:17:49.779Z,7.15
2023-01-12T11:20:24.145Z,7.43
2023-01-12T11:22:56.279Z,7.68
2023-01-12T11:25:27.617Z,7.53
2023-01-12T11:28:00.219Z,7.00
2023-01-12T11:30:40.979Z,4.93
2023-01-12T11:33:15.463Z,5.45
2023-01-12T11:35:51.756Z,1.17
2023-01-12T11:38:26.679Z,1.40
2023-01-12T11:41:01.843Z,0.30
2023-01-12T11:43:51.210Z,0.50
2023-01-12T11:46:27.356Z,0.45
2023-01-12T11:49:16.317Z,0.50
2023-01-12T11:51:45.802Z,0.32
2023-01-12T11:54:18.458Z,0.47
2023-01-12T11:57:14.603Z,0.77
2023-01-12T11:59:59.454Z,0.45
2023-01-12T12:02:38.842Z,0.82
2023-01-12T12:05:21.866Z,0.30
2023-01-12T12:07:59.931Z,0.28
2023-01-12T12:10:36.625Z,1.08
2023-01-12T12:13:28.195Z,0.70
2023-01-12T12:16:16.606Z,0.20
2023-01-12T12:18:57.512Z,1.00
2023-01-12T12:21:40.733Z,1.10
2023-01-12T12:24:21.360Z,1.58
2023-01-12T12:27:00.120Z,4.50
2023-01-12T12:29:44.305Z,4.32
2023-01-12T12:32:26.246Z,4.22
2023-01-12T12:35:50.627Z,5.07
2023-01-12T12:38:37.873Z,4.60
2023-01-12T12:41:41.544Z,4.25
2023-01-12T12:44:43.822Z,3.95
2023-01-12T12:47:43.374Z,5.07
2023-01-12T12:50:22.007Z,5.13
2023-01-12T12:53:13.814Z,5.75
2023-01-12T12:55:42.996Z,4.15
2023-01-12T12:58:29.471Z,3.95
2023-01-12T13:01:32.553Z,4.32
2023-01-12T13:04:04.419Z,3.90
2023-01-12T13:06:35.515Z,3.92
2023-01-12T13:09:38.497Z,3.90
2023-01-12T13:12:36.097Z,3.55
2023-01-12T13:15:22.794Z,3.05
2023-01-12T13:17:56.027Z,3.80
2023-01-12T13:20:39.962Z,3.40
2023-01-12T13:23:57.549Z,3.15
2023-01-12T13:26:52.529Z,4.07
2023-01-12T13:29:40.008Z,3.72
2023-01-12T13:32:48.405Z,3.92
2023-01-12T13:35:44.627Z,4.10
2023-01-12T13:38:22.750Z,4.35
2023-01-12T13:41:11.704Z,3.20
2023-01-12T13:43:49.732Z,4.03
2023-01-12T13:46:21.680Z,4.28
2023-01-12T13:48:57.843Z,3.90
2023-01-12T13:51:30.823Z,4.65
2023-01-12T13:54:00.576Z,4.28
2023-01-12T13:56:29.263Z,3.67
2023-01-12T13:59:04.237Z,4.97
2023-01-12T14:01:35.556Z,4.82
2023-01-12T14:04:24.135Z,4.35
2023-01-12T14:07:04.646Z,5.05
2023-01-12T14:09:48.533Z,3.67
2023-01-12T14:12:47.099Z,5.18
2023-01-12T14:15:43.422Z,5.18
2023-01-12T14:18:15.215Z,5.78
2023-01-12T14:20:47.819Z,4.65
2023-01-12T14:23:21.888Z,5.28
2023-01-12T14:26:14.124Z,4.85
2023-01-12T14:28:44.735Z,4.78
2023-01-12T14:31:27.239Z,4.28
2023-01-12T14:33:59.462Z,4.90
2023-01-12T14:36:31.573Z,5.18
2023-01-12T14:39:02.074Z,4.93
2023-01-12T14:42:03.760Z,3.63
2023-01-12T14:44:52.209Z,2.75
2023-01-12T14:47:32.645Z,2.40
2023-01-12T14:50:18.048Z,2.47
2023-01-12T14:52:48.407Z,2.53
2023-01-12T14:55:19.954Z,3.85
2023-01-12T14:57:55.493Z,4.38
2023-01-12T15:00:28.645Z,4.45
2023-01-12T15:03:00.415Z,5.07
2023-01-12T15:05:33.010Z,4.90
2023-01-12T15:08:03.885Z,4.93
2023-01-12T15:10:41.265Z,4.53
2023-01-12T15:13:29.111Z,3.80
2023-01-12T15:16:17.355Z,3.20
2023-01-12T15:19:05.038Z,4.82
2023-01-12T15:22:05.280Z,4.03
2023-01-12T15:24:54.562Z,4.57
2023-01-12T15:27:24.894Z,4.32
2023-01-12T15:29:55.486Z,4.63
2023-01-12T15:32:46.376Z,5.40
2023-01-12T15:35:21.755Z,4.88
2023-01-12T15:37:50.608Z,4.15
2023-01-12T15:40:20.243Z,3.55
2023-01-12T15:42:53.363Z,4.07
2023-01-12T15:45:33.077Z,4.22
2023-01-12T15:48:10.138Z,4.20
2023-01-12T15:50:42.348Z,4.65
2023-01-12T15:53:13.999Z,4.10
2023-01-12T15:55:44.525Z,4.15
2023-01-12T15:58:17.292Z,4.40
2023-01-12T16:00:46.511Z,4.35
2023-01-12T16:03:34.631Z,4.15
2023-01-12T16:06:05.975Z,3.63
2023-01-12T16:08:35.556Z,4.07
2023-01-12T16:11:13.140Z,4.28
2023-01-12T16:13:42.171Z,3.10
2023-01-12T16:16:17.667Z,3.72
2023-01-12T16:18:47.777Z,3.13
2023-01-12T16:21:19.486Z,4.45
2023-01-12T16:23:47.987Z,3.35
2023-01-12T16:26:16.420Z,3.72
2023-01-12T16:28:45.262Z,4.20
2023-01-12T16:31:16.232Z,4.40
2023-01-12T16:33:46.263Z,4.70
2023-01-12T16:36:17.794Z,3.80
2023-01-12T16:38:46.214Z,3.65
2023-01-12T16:41:19.267Z,4.18
2023-01-12T16:43:49.102Z,3.60
2023-01-12T16:46:18.075Z,4.05
2023-01-12T16:48:47.331Z,2.83
2023-01-12T16:51:21.084Z,2.97
2023-01-12T16:53:51.657Z,3.38
2023-01-12T16:56:26.035Z,3.35
2023-01-12T16:59:02.022Z,3.45
2023-01-12T17:01:38.230Z,4.05
2023-01-12T17:04:08.205Z,4.28
2023-01-12T17:06:40.038Z,3.97
2023-01-12T17:09:11.119Z,3.00
2023-01-12T17:11:41.595Z,2.53
2023-01-12T17:14:24.707Z,3.22
2023-01-12T17:16:58.692Z,2.85
2023-01-12T17:19:28.947Z,2.85
2023-01-12T17:22:02.551Z,2.90
2023-01-12T17:24:32.415Z,2.40
2023-01-12T17:27:03.284Z,2.53
2023-01-12T17:29:32.081Z,2.95
2023-01-12T17:32:06.939Z,3.55
2023-01-12T17:34:37.501Z,2.38
2023-01-12T17:37:09.869Z,2.85
2023-01-12T17:39:43.192Z,3.15
2023-01-12T17:42:32.335Z,4.47
2023-01-12T17:45:08.838Z,4.40
2023-01-12T17:47:47.128Z,4.68
2023-01-12T17:50:17.456Z,2.65
2023-01-12T17:52:47.436Z,3.40
2023-01-12T17:55:16.475Z,2.85
2023-01-12T17:57:44.892Z,3.95
2023-01-12T18:00:23.079Z,4.05
2023-01-12T18:02:52.968Z,5.30
2023-01-12T18:05:22.610Z,3.45
2023-01-12T18:07:56.038Z,4.22
2023-01-12T18:10:31.363Z,3.67
2023-01-12T18:12:59.810Z,3.03
2023-01-12T18:15:30.772Z,3.08
2023-01-12T18:17:59.509Z,3.95
2023-01-12T18:20:33.530Z,3.28
2023-01-12T18:23:03.295Z,3.17
2023-01-12T18:25:32.156Z,3.03
2023-01-12T18:28:03.717Z,3.50
2023-01-12T18:30:38.679Z,3.20
2023-01-12T18:33:07.187Z,3.30
2023-01-12T18:35:38.623Z,3.88
2023-01-12T18:38:08.871Z,3.83
2023-01-12T18:40:39.084Z,4.45
2023-01-12T18:43:11.045Z,4.53
2023-01-12T18:45:41.693Z,3.70
2023-01-12T18:48:21.353Z,3.58
2023-01-12T18:51:11.865Z,4.78
2023-01-12T18:53:44.068Z,4.10
2023-01-12T18:56:14.268Z,3.08
2023-01-12T18:58:49.108Z,3.78
2023-01-12T19:01:21.324Z,4.13
2023-01-12T19:03:59.100Z,3.75
2023-01-12T19:06:44.965Z,4.25
2023-01-12T19:09:34.242Z,4.20
2023-01-12T19:12:03.284Z,3.97
2023-01-12T19:14:56.021Z,3.97
2023-01-12T19:17:33.750Z,4.30
2023-01-12T19:20:06.353Z,3.75
2023-01-12T19:22:53.007Z,4.93
2023-01-12T19:25:44.121Z,3.70
2023-01-12T19:28:36.874Z,4.18
2023-01-12T19:31:11.069Z,5.00
2023-01-12T19:33:42.891Z,5.22
2023-01-12T19:36:16.160Z,5.38
2023-01-12T19:38:54.106Z,3.85
2023-01-12T19:41:42.632Z,4.63
2023-01-12T19:44:20.823Z,5.00
2023-01-12T19:46:52.252Z,3.92
2023-01-12T19:49:21.322Z,3.90
2023-01-12T19:51:51.210Z,4.47
2023-01-12T19:54:21.346Z,4.15
2023-01-12T19:56:53.860Z,4.78
2023-01-12T19:59:24.428Z,6.13
2023-01-12T20:01:54.272Z,4.95
2023-01-12T20:04:28.739Z,4.70
2023-01-12T20:06:59.877Z,4.05
2023-01-12T20:09:33.110Z,5.63
2023-01-12T20:12:11.060Z,4.32
2023-01-12T20:14:45.517Z,4.20
2023-01-12T20:17:14.267Z,4.53
2023-01-12T20:19:51.413Z,4.15
2023-01-12T20:22:22.118Z,3.65
2023-01-12T20:24:54.387Z,3.25
2023-01-12T20:27:26.306Z,4.10
2023-01-12T20:29:57.108Z,3.72
2023-01-12T20:32:31.812Z,4.63
2023-01-12T20:35:00.508Z,3.55
2023-01-12T20:37:47.806Z,4.40
2023-01-12T20:40:23.239Z,4.00
2023-01-12T20:42:54.564Z,4.10
2023-01-12T20:45:23.941Z,4.68
2023-01-12T20:48:06.916Z,4.30
2023-01-12T20:54:40.485Z,4.93
2023-01-12T21:01:12.321Z,4.80
2023-01-12T21:04:36.357Z,5.55
2023-01-12T21:07:12.925Z,4.18
2023-01-12T21:09:58.610Z,4.00
2023-01-12T21:13:07.272Z,5.75
2023-01-12T21:20:20.168Z,5.50
2023-01-12T21:22:51.619Z,1.17
2023-01-12T21:25:28.096Z,4.93
2023-01-12T21:27:58.927Z,5.82
2023-01-12T21:30:28.843Z,4.47
2023-01-12T21:32:59.655Z,5.07
2023-01-12T21:35:33.093Z,4.65
2023-01-12T21:38:11.255Z,4.22
2023-01-12T21:40:49.299Z,3.97
2023-01-12T21:43:25.441Z,3.97
2023-01-12T21:46:16.720Z,3.90
2023-01-12T21:48:47.142Z,4.75
2023-01-12T21:51:18.823Z,5.07
2023-01-12T21:53:48.177Z,5.35
2023-01-12T21:56:16.864Z,4.03
2023-01-12T21:58:46.345Z,4.20
2023-01-12T22:01:16.107Z,4.97
2023-01-12T22:03:50.756Z,4.43
2023-01-12T22:06:22.357Z,5.40
2023-01-12T22:08:51.885Z,5.00
2023-01-12T22:11:22.773Z,4.68
2023-01-12T22:13:51.499Z,4.88
2023-01-12T22:16:25.940Z,5.72
2023-01-12T22:18:55.507Z,5.80
2023-01-12T22:21:32.888Z,4.35
2023-01-12T22:24:08.357Z,5.18
2023-01-12T22:26:37.741Z,5.35
2023-01-12T22:29:07.403Z,5.15
2023-01-12T22:31:43.152Z,4.80
2023-01-12T22:34:14.524Z,7.03
2023-01-12T22:36:44.715Z,3.97
2023-01-12T22:39:28.444Z,5.00
2023-01-12T22:41:58.027Z,4.53
2023-01-12T22:44:32.475Z,3.80
2023-01-12T22:47:08.049Z,4.80
2023-01-12T22:49:37.007Z,5.50
2023-01-12T22:52:07.144Z,4.25
2023-01-12T22:54:38.965Z,4.10
2023-01-12T22:57:20.811Z,4.82
2023-01-12T22:59:51.353Z,5.32
2023-01-12T23:02:39.632Z,3.95
2023-01-12T23:05:08.599Z,3.85
2023-01-12T23:07:41.056Z,4.82
2023-01-12T23:10:10.320Z,4.38
2023-01-12T23:12:39.022Z,4.82
2023-01-12T23:15:09.029Z,4.00
2023-01-12T23:17:37.702Z,4.55
2023-01-12T23:20:09.270Z,3.38
2023-01-12T23:22:41.157Z,4.15
2023-01-12T23:25:10.985Z,4.57
2023-01-12T23:27:45.307Z,4.05
2023-01-12T23:30:14.299Z,2.85
2023-01-12T23:32:42.776Z,4.03
2023-01-12T23:35:11.780Z,3.15
2023-01-12T23:37:55.917Z,2.85
2023-01-12T23:40:33.068Z,3.25
2023-01-12T23:43:02.177Z,3.35
2023-01-12T23:45:31.673Z,2.30
2023-01-12T23:48:06.515Z,3.08
2023-01-12T23:50:41.059Z,3.20
2023-01-12T23:53:10.929Z,3.00
2023-01-12T23:55:40.789Z,2.50
2023-01-12T23:58:12.120Z,3.55
